createdAt,value
2023-01-10T00:02:29.871Z,3.43
2023-01-10T00:05:17.128Z,3.33
2023-01-10T00:08:05.106Z,3.63
2023-01-10T00:10:51.280Z,3.17
2023-01-10T00:13:36.592Z,4.30
2023-01-10T00:16:23.115Z,3.30
2023-01-10T00:19:10.708Z,3.30
2023-01-10T00:22:13.694Z,3.60
2023-01-10T00:25:01.457Z,3.83
2023-01-10T00:27:49.745Z,3.67
2023-01-10T00:30:36.342Z,3.97
2023-01-10T00:33:23.197Z,4.00
2023-01-10T00:36:11.305Z,4.10
2023-01-10T00:38:57.790Z,3.33
2023-01-10T00:42:03.041Z,3.73
2023-01-10T00:44:49.706Z,4.70
2023-01-10T00:47:35.858Z,3.70
2023-01-10T00:50:22.348Z,3.67
2023-01-10T00:53:09.137Z,4.13
2023-01-10T00:55:55.551Z,3.37
2023-01-10T00:58:44.880Z,3.93
2023-01-10T01:01:31.441Z,2.83
2023-01-10T01:04:18.090Z,3.50
2023-01-10T01:07:04.216Z,3.43
2023-01-10T01:10:07.846Z,4.33
2023-01-10T01:12:53.959Z,3.53
2023-01-10T01:15:41.653Z,4.53
2023-01-10T01:18:28.247Z,4.23
2023-01-10T01:21:14.400Z,6.33
2023-01-10T01:24:00.741Z,4.17
2023-01-10T01:26:46.825Z,4.13
2023-01-10T01:29:42.947Z,3.03
2023-01-10T01:32:31.304Z,5.00
2023-01-10T01:35:18.059Z,4.90
2023-01-10T01:38:04.589Z,4.80
2023-01-10T01:40:50.721Z,3.00
2023-01-10T01:43:51.896Z,3.33
2023-01-10T01:46:39.697Z,4.23
2023-01-10T01:49:27.668Z,3.30
2023-01-10T01:52:20.094Z,5.00
2023-01-10T01:55:07.243Z,4.70
2023-01-10T01:57:54.965Z,4.73
2023-01-10T02:00:41.724Z,2.73
2023-01-10T02:03:28.503Z,5.07
2023-01-10T02:06:17.007Z,5.33
2023-01-10T02:09:06.773Z,4.87
2023-01-10T02:11:53.154Z,3.60
2023-01-10T02:14:39.652Z,3.93
2023-01-10T02:17:26.053Z,3.20
2023-01-10T02:20:14.024Z,4.50
2023-01-10T02:23:18.392Z,4.57
2023-01-10T02:26:33.270Z,4.37
2023-01-10T02:29:38.095Z,4.13
2023-01-10T02:32:43.805Z,3.00
2023-01-10T02:35:52.005Z,3.03
2023-01-10T02:38:46.659Z,3.23
2023-01-10T02:41:36.964Z,3.57
2023-01-10T02:44:25.917Z,2.93
2023-01-10T02:47:14.065Z,3.87
2023-01-10T02:50:15.202Z,2.33
2023-01-10T02:53:05.310Z,3.83
2023-01-10T02:56:08.389Z,3.70
2023-01-10T02:59:07.071Z,3.23
2023-01-10T03:01:57.472Z,3.77
2023-01-10T03:04:52.016Z,2.93
2023-01-10T03:07:40.341Z,3.53
2023-01-10T03:10:31.549Z,4.07
2023-01-10T03:13:21.288Z,3.83
2023-01-10T03:16:09.553Z,2.53
2023-01-10T03:18:58.804Z,3.60
2023-01-10T03:21:45.383Z,3.33
2023-01-10T03:24:33.965Z,4.07
2023-01-10T03:27:23.585Z,2.10
2023-01-10T03:30:14.822Z,3.10
2023-01-10T03:33:01.188Z,3.97
2023-01-10T03:35:52.157Z,3.63
2023-01-10T03:38:42.715Z,4.30
2023-01-10T03:41:36.034Z,3.80
2023-01-10T03:44:44.775Z,3.27
2023-01-10T03:47:34.722Z,2.90
2023-01-10T03:50:22.473Z,4.43
2023-01-10T03:53:08.712Z,3.97
2023-01-10T03:55:55.278Z,3.30
2023-01-10T03:58:41.659Z,3.03
2023-01-10T04:01:29.462Z,2.47
2023-01-10T04:04:15.874Z,3.53
2023-01-10T04:07:02.580Z,3.67
2023-01-10T04:09:48.818Z,3.70
2023-01-10T04:12:35.246Z,4.37
2023-01-10T04:15:22.058Z,3.40
2023-01-10T04:18:09.786Z,3.47
2023-01-10T04:20:56.092Z,3.63
2023-01-10T04:23:42.399Z,3.43
2023-01-10T04:26:28.784Z,2.90
2023-01-10T04:29:14.810Z,3.80
2023-01-10T04:32:01.171Z,4.40
2023-01-10T04:34:49.139Z,3.10
2023-01-10T04:37:35.847Z,2.77
2023-01-10T04:40:23.612Z,4.63
2023-01-10T04:43:11.687Z,2.73
2023-01-10T04:45:57.888Z,4.03
2023-01-10T04:48:44.423Z,4.63
2023-01-10T04:51:32.078Z,3.80
2023-01-10T04:54:20.770Z,3.53
2023-01-10T04:57:07.432Z,3.87
2023-01-10T04:59:53.897Z,2.87
2023-01-10T05:02:44.006Z,13.27
2023-01-10T05:05:30.573Z,4.90
2023-01-10T05:08:18.163Z,3.43
2023-01-10T05:11:04.667Z,2.97
2023-01-10T05:13:50.955Z,3.43
2023-01-10T05:16:37.640Z,4.07
2023-01-10T05:19:24.276Z,3.03
2023-01-10T05:22:10.412Z,2.90
2023-01-10T05:24:57.906Z,2.23
2023-01-10T05:27:44.452Z,3.10
2023-01-10T05:30:30.830Z,3.00
2023-01-10T05:33:16.960Z,3.20
2023-01-10T05:36:03.421Z,2.43
2023-01-10T05:38:49.563Z,3.27
2023-01-10T05:41:37.097Z,3.57
2023-01-10T05:44:23.843Z,4.07
2023-01-10T05:47:10.277Z,2.60
2023-01-10T05:49:56.646Z,2.03
2023-01-10T05:52:43.256Z,3.13
2023-01-10T05:55:29.687Z,3.00
2023-01-10T05:58:17.434Z,2.97
2023-01-10T06:01:04.019Z,3.63
2023-01-10T06:03:50.715Z,3.60
2023-01-10T06:06:37.121Z,2.53
2023-01-10T06:09:23.727Z,3.47
2023-01-10T06:12:10.513Z,2.53
2023-01-10T06:14:58.690Z,2.57
2023-01-10T06:17:45.660Z,3.33
2023-01-10T06:20:32.006Z,4.20
2023-01-10T06:23:18.601Z,2.70
2023-01-10T06:26:05.095Z,3.53
2023-01-10T06:28:51.452Z,2.47
2023-01-10T06:31:39.210Z,2.30
2023-01-10T06:34:25.589Z,2.10
2023-01-10T06:37:12.078Z,2.83
2023-01-10T06:39:58.431Z,2.87
2023-01-10T06:42:44.660Z,3.50
2023-01-10T06:45:30.879Z,3.67
2023-01-10T06:48:18.676Z,3.40
2023-01-10T06:51:05.435Z,2.80
2023-01-10T06:53:51.896Z,3.10
2023-01-10T06:56:38.033Z,2.80
2023-01-10T06:59:24.309Z,3.47
2023-01-10T07:02:11.279Z,2.77
2023-01-10T07:04:59.328Z,2.70
2023-01-10T07:07:45.891Z,2.67
2023-01-10T07:10:32.639Z,3.30
2023-01-10T07:13:18.768Z,3.27
2023-01-10T07:16:05.544Z,2.83
2023-01-10T07:18:52.033Z,3.27
2023-01-10T07:21:39.822Z,3.37
2023-01-10T07:24:26.968Z,3.93
2023-01-10T07:27:13.436Z,3.50
2023-01-10T07:30:00.261Z,4.40
2023-01-10T07:32:46.548Z,3.63
2023-01-10T07:35:33.316Z,3.80
2023-01-10T07:38:21.510Z,5.57
2023-01-10T07:41:07.958Z,2.73
2023-01-10T07:43:54.553Z,4.07
2023-01-10T07:46:40.898Z,5.30
2023-01-10T07:49:27.251Z,4.00
2023-01-10T07:52:14.233Z,2.83
2023-01-10T07:55:02.036Z,5.00
2023-01-10T07:57:48.496Z,4.80
2023-01-10T08:00:34.799Z,5.10
2023-01-10T08:03:20.979Z,4.27
2023-01-10T08:06:08.299Z,4.97
2023-01-10T08:08:54.902Z,4.57
2023-01-10T08:11:43.461Z,3.97
2023-01-10T08:14:30.083Z,4.30
2023-01-10T08:17:16.413Z,4.50
2023-01-10T08:20:02.977Z,4.23
2023-01-10T08:22:49.517Z,5.70
2023-01-10T08:25:37.309Z,6.10
2023-01-10T08:28:26.519Z,5.13
2023-01-10T08:31:12.983Z,5.67
2023-01-10T08:33:59.421Z,5.63
2023-01-10T08:36:46.737Z,5.27
2023-01-10T08:39:32.991Z,3.83
2023-01-10T08:42:18.922Z,5.10
2023-01-10T08:45:07.322Z,4.93
2023-01-10T08:47:54.270Z,6.17
2023-01-10T08:50:40.719Z,5.10
2023-01-10T08:53:31.983Z,5.60
2023-01-10T08:56:18.353Z,5.17
2023-01-10T08:59:05.091Z,5.60
2023-01-10T09:01:52.871Z,6.00
2023-01-10T09:04:39.186Z,6.40
2023-01-10T09:07:25.607Z,5.67
2023-01-10T09:10:12.412Z,6.47
2023-01-10T09:13:00.068Z,6.87
2023-01-10T09:15:46.982Z,6.73
2023-01-10T09:18:36.200Z,7.03
2023-01-10T09:21:22.646Z,16.10
2023-01-10T09:24:09.097Z,6.47
2023-01-10T09:26:55.477Z,6.77
2023-01-10T09:29:41.799Z,7.30
2023-01-10T09:32:28.227Z,8.10
2023-01-10T09:35:15.781Z,8.27
2023-01-10T09:38:02.932Z,7.00
2023-01-10T09:40:54.336Z,19.70
2023-01-10T09:43:47.596Z,6.23
2023-01-10T09:46:41.825Z,6.00
2023-01-10T09:49:43.948Z,6.07
2023-01-10T09:52:33.679Z,7.60
2023-01-10T09:55:24.684Z,6.00
2023-01-10T09:58:13.643Z,6.27
2023-01-10T10:01:00.735Z,9.90
2023-01-10T10:03:50.241Z,17.17
2023-01-10T10:06:36.964Z,9.43
2023-01-10T10:09:25.997Z,7.17
2023-01-10T10:12:19.887Z,5.70
2023-01-10T10:15:13.634Z,6.93
2023-01-10T10:18:06.663Z,7.20
2023-01-10T10:20:58.808Z,9.03
2023-01-10T10:24:03.054Z,4.20
2023-01-10T10:26:57.484Z,5.83
2023-01-10T10:29:57.840Z,5.53
2023-01-10T10:33:05.008Z,4.10
2023-01-10T10:35:54.158Z,3.47
2023-01-10T10:38:42.608Z,3.53
2023-01-10T10:41:33.144Z,3.00
2023-01-10T10:44:31.871Z,3.10
2023-01-10T10:47:18.632Z,3.83
2023-01-10T10:50:10.126Z,3.23
2023-01-10T10:52:56.802Z,3.20
2023-01-10T10:55:42.943Z,3.10
2023-01-10T10:58:30.901Z,3.53
2023-01-10T11:01:20.206Z,3.13
2023-01-10T11:04:08.742Z,3.30
2023-01-10T11:06:55.655Z,2.77
2023-01-10T11:09:41.966Z,3.23
2023-01-10T11:12:35.982Z,3.10
2023-01-10T11:15:42.380Z,3.97
2023-01-10T11:18:31.546Z,3.43
2023-01-10T11:21:21.247Z,3.50
2023-01-10T11:24:19.935Z,4.03
2023-01-10T11:27:15.372Z,3.10
2023-01-10T11:30:03.250Z,2.83
2023-01-10T11:32:51.234Z,3.83
2023-01-10T11:35:42.232Z,3.73
2023-01-10T11:38:30.449Z,3.90
2023-01-10T11:41:27.329Z,3.70
2023-01-10T11:44:17.502Z,3.53
2023-01-10T11:47:05.157Z,4.70
2023-01-10T11:49:51.782Z,3.33
2023-01-10T11:52:44.750Z,3.83
2023-01-10T11:55:32.518Z,3.43
2023-01-10T11:58:19.315Z,1.60
2023-01-10T12:01:06.037Z,2.97
2023-01-10T12:03:52.631Z,2.00
2023-01-10T12:06:43.787Z,2.10
2023-01-10T12:09:39.838Z,2.47
2023-01-10T12:12:27.103Z,2.47
2023-01-10T12:15:23.872Z,2.47
2023-01-10T12:18:11.949Z,2.47
2023-01-10T12:21:00.364Z,1.90
2023-01-10T12:23:47.690Z,1.83
2023-01-10T12:26:35.841Z,2.10
2023-01-10T12:29:25.146Z,2.07
2023-01-10T12:32:17.797Z,2.60
2023-01-10T12:35:05.625Z,2.20
2023-01-10T12:37:55.698Z,3.00
2023-01-10T12:40:44.818Z,2.20
2023-01-10T12:43:54.121Z,2.17
2023-01-10T12:47:06.041Z,26.20
2023-01-10T12:49:53.991Z,13.60
2023-01-10T12:52:45.635Z,9.17
2023-01-10T12:55:38.238Z,21.57
2023-01-10T12:58:27.433Z,16.20
2023-01-10T13:01:17.033Z,17.20
2023-01-10T13:04:04.931Z,16.90
2023-01-10T13:06:51.370Z,14.17
2023-01-10T13:09:38.121Z,8.97
2023-01-10T13:12:34.164Z,8.13
2023-01-10T13:15:23.259Z,4.97
2023-01-10T13:18:19.743Z,7.73
2023-01-10T13:21:08.907Z,9.43
2023-01-10T13:23:58.717Z,4.40
2023-01-10T13:26:51.189Z,3.93
2023-01-10T13:29:40.031Z,4.80
2023-01-10T13:32:28.711Z,4.43
2023-01-10T13:35:19.966Z,10.23
2023-01-10T13:38:06.315Z,12.80
2023-01-10T13:41:03.204Z,7.03
2023-01-10T13:44:16.898Z,4.87
2023-01-10T13:47:03.627Z,2.97
2023-01-10T13:49:50.199Z,2.93
2023-01-10T13:52:37.948Z,5.00
2023-01-10T13:55:26.342Z,4.00
2023-01-10T13:58:41.318Z,4.20
2023-01-10T14:01:46.295Z,3.83
2023-01-10T14:04:34.565Z,3.37
2023-01-10T14:07:24.254Z,4.50
2023-01-10T14:10:19.877Z,6.10
2023-01-10T14:13:10.475Z,6.40
2023-01-10T14:15:56.789Z,4.20
2023-01-10T14:18:46.735Z,4.10
2023-01-10T14:21:36.895Z,15.13
2023-01-10T14:24:25.803Z,8.87
2023-01-10T14:27:15.841Z,11.53
2023-01-10T14:30:03.299Z,9.53
2023-01-10T14:32:52.197Z,9.23
2023-01-10T14:35:40.193Z,9.83
2023-01-10T14:38:27.846Z,14.83
2023-01-10T14:41:18.121Z,8.37
2023-01-10T14:44:11.763Z,11.43
2023-01-10T14:46:59.168Z,14.67
2023-01-10T14:49:51.269Z,11.63
2023-01-10T14:52:37.294Z,11.33
2023-01-10T14:55:23.855Z,7.83
2023-01-10T14:58:18.157Z,8.73
2023-01-10T15:01:05.888Z,10.53
2023-01-10T15:03:53.026Z,8.47
2023-01-10T15:06:51.768Z,6.17
2023-01-10T15:09:39.028Z,3.57
2023-01-10T15:12:26.520Z,3.70
2023-01-10T15:15:14.972Z,3.77
2023-01-10T15:18:04.772Z,5.50
2023-01-10T15:20:51.008Z,5.60
2023-01-10T15:23:37.855Z,9.67
2023-01-10T15:26:28.758Z,3.33
2023-01-10T15:29:19.399Z,3.00
2023-01-10T15:32:09.600Z,3.30
2023-01-10T15:34:58.501Z,3.20
2023-01-10T15:37:50.083Z,3.50
2023-01-10T15:40:37.920Z,3.33
2023-01-10T15:43:25.665Z,3.60
2023-01-10T15:46:19.126Z,3.10
2023-01-10T15:49:22.514Z,3.13
2023-01-10T15:52:21.972Z,3.30
2023-01-10T15:55:21.187Z,3.07
2023-01-10T15:58:14.530Z,3.33
2023-01-10T16:01:01.606Z,3.43
2023-01-10T16:03:49.611Z,4.00
2023-01-10T16:06:36.941Z,2.27
2023-01-10T16:09:24.458Z,4.30
2023-01-10T16:12:41.905Z,4.57
2023-01-10T16:15:29.559Z,3.17
2023-01-10T16:18:16.179Z,2.40
2023-01-10T16:21:04.083Z,2.90
2023-01-10T16:23:50.695Z,3.00
2023-01-10T16:26:38.285Z,2.27
2023-01-10T16:29:25.178Z,1.77
2023-01-10T16:32:14.176Z,1.80
2023-01-10T16:35:01.624Z,2.27
2023-01-10T16:37:48.276Z,2.13
2023-01-10T16:40:36.644Z,1.50
2023-01-10T16:43:25.631Z,1.70
2023-01-10T16:46:12.090Z,1.23
2023-01-10T16:48:58.540Z,1.20
2023-01-10T16:51:45.353Z,1.43
2023-01-10T16:54:31.490Z,1.20
2023-01-10T16:57:18.060Z,0.80
2023-01-10T17:00:06.991Z,0.93
2023-01-10T17:02:53.346Z,1.00
2023-01-10T17:05:39.938Z,1.10
2023-01-10T17:08:26.467Z,2.07
2023-01-10T17:11:16.319Z,1.83
2023-01-10T17:14:04.385Z,2.23
2023-01-10T17:16:52.621Z,2.03
2023-01-10T17:19:40.746Z,3.20
2023-01-10T17:22:30.653Z,2.63
2023-01-10T17:25:18.153Z,3.40
2023-01-10T17:28:04.398Z,3.00
2023-01-10T17:30:52.838Z,4.63
2023-01-10T17:33:40.720Z,2.70
2023-01-10T17:36:29.936Z,1.60
2023-01-10T17:39:16.335Z,1.17
2023-01-10T17:42:02.697Z,2.63
2023-01-10T17:44:48.944Z,1.80
2023-01-10T17:47:35.304Z,1.53
2023-01-10T17:50:23.130Z,1.13
2023-01-10T17:53:09.673Z,1.30
2023-01-10T17:55:57.158Z,2.00
2023-01-10T17:58:43.890Z,1.80
2023-01-10T18:01:30.285Z,2.17
2023-01-10T18:04:16.857Z,2.53
2023-01-10T18:07:07.147Z,3.77
2023-01-10T18:09:54.267Z,2.73
2023-01-10T18:12:40.878Z,2.37
2023-01-10T18:15:27.645Z,2.97
2023-01-10T18:18:14.389Z,2.73
2023-01-10T18:21:02.358Z,2.67
2023-01-10T18:23:50.238Z,2.63
2023-01-10T18:26:36.710Z,2.20
2023-01-10T18:29:24.604Z,2.33
2023-01-10T18:32:11.295Z,2.43
2023-01-10T18:34:58.201Z,3.70
2023-01-10T18:37:45.052Z,2.83
2023-01-10T18:40:33.102Z,3.50
2023-01-10T18:43:20.554Z,2.57
2023-01-10T18:46:08.085Z,2.53
2023-01-10T18:48:55.380Z,2.83
2023-01-10T18:51:42.021Z,2.10
2023-01-10T18:54:29.907Z,1.90
2023-01-10T18:57:18.201Z,2.13
2023-01-10T19:00:05.256Z,3.50
2023-01-10T19:02:54.286Z,3.37
2023-01-10T19:05:41.217Z,3.27
2023-01-10T19:08:27.418Z,3.60
2023-01-10T19:11:16.037Z,2.70
2023-01-10T19:14:05.940Z,2.67
2023-01-10T19:16:52.957Z,6.57
2023-01-10T19:19:39.961Z,2.93
2023-01-10T19:22:27.094Z,2.50
2023-01-10T19:25:14.494Z,2.37
2023-01-10T19:28:01.898Z,4.07
2023-01-10T19:31:03.475Z,4.43
2023-01-10T19:33:50.933Z,2.60
2023-01-10T19:36:37.908Z,2.00
2023-01-10T19:39:24.745Z,4.93
2023-01-10T19:42:14.345Z,2.83
2023-01-10T19:45:04.087Z,2.73
2023-01-10T19:47:52.295Z,2.30
2023-01-10T19:50:38.883Z,4.23
2023-01-10T19:53:27.222Z,2.90
2023-01-10T19:56:18.361Z,5.40
2023-01-10T19:59:05.199Z,4.17
2023-01-10T20:01:51.901Z,3.97
2023-01-10T20:04:39.896Z,3.33
2023-01-10T20:07:27.014Z,3.90
2023-01-10T20:10:13.667Z,4.43
2023-01-10T20:13:00.403Z,3.27
2023-01-10T20:15:46.642Z,3.57
2023-01-10T20:18:33.489Z,3.53
2023-01-10T20:21:21.109Z,4.03
2023-01-10T20:24:09.431Z,4.57
2023-01-10T20:26:57.480Z,5.00
2023-01-10T20:29:45.701Z,3.93
2023-01-10T20:32:32.559Z,4.50
2023-01-10T20:35:21.996Z,6.97
2023-01-10T20:38:09.591Z,5.13
2023-01-10T20:40:57.525Z,5.17
2023-01-10T20:43:43.686Z,5.80
2023-01-10T20:46:31.935Z,5.20
2023-01-10T20:49:18.411Z,4.73
2023-01-10T20:52:04.624Z,4.53
2023-01-10T20:54:52.189Z,3.87
2023-01-10T20:57:38.643Z,4.20
2023-01-10T21:00:24.900Z,2.80
2023-01-10T21:03:11.597Z,1.93
2023-01-10T21:05:59.477Z,2.50
2023-01-10T21:08:46.312Z,2.10
2023-01-10T21:11:44.440Z,1.93
2023-01-10T21:14:38.530Z,3.30
2023-01-10T21:17:24.930Z,2.70
2023-01-10T21:20:11.900Z,5.17
2023-01-10T21:22:59.925Z,3.00
2023-01-10T21:25:46.695Z,2.50
2023-01-10T21:28:35.742Z,2.60
2023-01-10T21:31:22.883Z,3.50
2023-01-10T21:34:09.054Z,2.77
2023-01-10T21:36:57.005Z,2.03
2023-01-10T21:39:43.709Z,2.20
2023-01-10T21:42:38.028Z,2.90
2023-01-10T21:45:26.008Z,3.07
2023-01-10T21:48:12.530Z,1.87
2023-01-10T21:50:58.946Z,2.10
2023-01-10T21:53:45.450Z,2.60
2023-01-10T21:56:31.796Z,2.33
2023-01-10T21:59:18.217Z,2.70
2023-01-10T22:02:05.726Z,2.37
2023-01-10T22:04:54.024Z,1.87
2023-01-10T22:07:40.977Z,1.97
2023-01-10T22:10:27.245Z,2.13
2023-01-10T22:13:13.670Z,1.57
2023-01-10T22:16:00.482Z,2.53
2023-01-10T22:18:49.113Z,2.30
2023-01-10T22:21:35.442Z,1.20
2023-01-10T22:24:21.772Z,1.87
2023-01-10T22:27:08.475Z,1.43
2023-01-10T22:29:55.236Z,1.70
2023-01-10T22:32:41.408Z,1.00
2023-01-10T22:35:29.103Z,1.40
2023-01-10T22:38:15.576Z,1.53
2023-01-10T22:41:06.290Z,1.10
2023-01-10T22:43:53.159Z,1.00
2023-01-10T22:46:39.427Z,1.43
2023-01-10T22:49:25.558Z,1.17
2023-01-10T22:52:13.129Z,1.73
2023-01-10T22:54:59.566Z,1.00
2023-01-10T22:57:47.696Z,1.50
2023-01-10T23:00:34.400Z,1.60
2023-01-10T23:03:20.713Z,1.47
2023-01-10T23:06:06.868Z,1.13
2023-01-10T23:08:54.374Z,1.57
2023-01-10T23:11:40.753Z,2.33
2023-01-10T23:14:27.243Z,4.60
2023-01-10T23:17:13.403Z,2.20
2023-01-10T23:19:59.964Z,2.07
2023-01-10T23:22:46.172Z,2.27
2023-01-10T23:25:33.838Z,2.80
2023-01-10T23:28:20.256Z,1.80
2023-01-10T23:31:07.538Z,3.43
2023-01-10T23:33:53.983Z,2.27
2023-01-10T23:36:40.438Z,1.60
2023-01-10T23:39:26.829Z,2.53
2023-01-10T23:42:14.492Z,2.73
2023-01-10T23:45:01.133Z,2.70
2023-01-10T23:47:47.415Z,2.93
2023-01-10T23:50:33.678Z,1.97
2023-01-10T23:53:20.411Z,2.23
2023-01-10T23:56:07.181Z,2.33
2023-01-10T23:58:54.875Z,1.70
